createdAt,value
2022-12-18T00:00:37.492Z,-6.31
2022-12-18T00:01:19.693Z,-6.43
2022-12-18T00:03:46.718Z,-6.41
2022-12-18T00:05:37.605Z,-6.41
2022-12-18T00:06:14.643Z,-6.37
2022-12-18T00:08:45.331Z,-6.60
2022-12-18T00:10:37.500Z,-6.60
2022-12-18T00:11:14.374Z,-6.53
2022-12-18T00:13:41.369Z,-6.86
2022-12-18T00:15:37.518Z,-6.86
2022-12-18T00:16:11.977Z,-6.59
2022-12-18T00:18:38.984Z,-7.11
2022-12-18T00:20:37.466Z,-7.11
2022-12-18T00:21:08.720Z,-6.58
2022-12-18T00:23:36.975Z,-6.60
2022-12-18T00:25:37.480Z,-6.60
2022-12-18T00:26:06.642Z,-6.52
2022-12-18T00:28:35.689Z,-6.53
2022-12-18T00:30:37.530Z,-6.53
2022-12-18T00:31:07.229Z,-7.00
2022-12-18T00:33:34.523Z,-7.28
2022-12-18T00:35:37.613Z,-7.28
2022-12-18T00:36:09.984Z,-6.58
2022-12-18T00:38:37.826Z,-6.99
2022-12-18T00:40:37.518Z,-6.99
2022-12-18T00:41:05.069Z,-6.79
2022-12-18T00:43:31.681Z,-7.13
2022-12-18T00:45:37.619Z,-7.13
2022-12-18T00:45:58.127Z,-8.29
2022-12-18T00:48:24.518Z,-8.14
2022-12-18T00:50:37.514Z,-8.14
2022-12-18T00:50:51.661Z,-6.67
2022-12-18T00:53:19.074Z,-6.65
2022-12-18T00:55:37.521Z,-6.65
2022-12-18T00:55:46.665Z,-7.63
2022-12-18T00:58:16.874Z,-6.73
2022-12-18T01:00:37.565Z,-6.73
2022-12-18T01:00:44.412Z,-7.25
2022-12-18T01:03:14.475Z,-6.71
2022-12-18T01:05:37.604Z,-6.71
2022-12-18T01:05:42.412Z,-7.44
2022-12-18T01:08:08.844Z,-7.13
2022-12-18T01:10:35.192Z,-7.59
2022-12-18T01:10:37.500Z,-7.59
2022-12-18T01:13:01.579Z,-7.41
2022-12-18T01:15:27.907Z,-7.05
2022-12-18T01:15:37.496Z,-7.05
2022-12-18T01:17:54.621Z,-7.21
2022-12-18T01:20:21.597Z,-7.54
2022-12-18T01:20:37.519Z,-7.54
2022-12-18T01:22:47.949Z,-7.67
2022-12-18T01:25:14.467Z,-6.99
2022-12-18T01:25:37.500Z,-6.99
2022-12-18T01:27:40.840Z,-7.92
2022-12-18T01:30:08.159Z,-6.88
2022-12-18T01:30:37.494Z,-6.88
2022-12-18T01:32:34.560Z,-6.77
2022-12-18T01:35:00.923Z,-7.05
2022-12-18T01:35:37.639Z,-7.05
2022-12-18T01:37:27.259Z,-7.15
2022-12-18T01:39:55.241Z,-7.28
2022-12-18T01:40:37.517Z,-7.28
2022-12-18T01:42:22.037Z,-6.71
2022-12-18T01:45:05.713Z,-6.69
2022-12-18T01:45:37.518Z,-6.69
2022-12-18T01:47:45.768Z,-10.24
2022-12-18T01:50:19.017Z,-6.77
2022-12-18T01:50:37.535Z,-6.77
2022-12-18T01:53:12.257Z,-6.79
2022-12-18T01:55:43.899Z,-7.00
2022-12-18T01:55:44.024Z,-7.00
2022-12-18T01:58:10.658Z,-6.78
2022-12-18T02:00:37.093Z,-6.68
2022-12-18T02:00:37.507Z,-6.68
2022-12-18T02:03:03.632Z,-8.44
2022-12-18T02:05:50.566Z,-7.03
2022-12-18T02:05:50.699Z,-7.03
2022-12-18T02:08:46.925Z,-7.35
2022-12-18T02:10:37.502Z,-7.35
2022-12-18T02:11:37.458Z,-6.73
2022-12-18T02:14:20.051Z,-7.12
2022-12-18T02:15:37.523Z,-7.12
2022-12-18T02:16:52.213Z,-6.66
2022-12-18T02:20:07.377Z,-6.68
2022-12-18T02:20:37.525Z,-6.68
2022-12-18T02:22:58.013Z,-6.72
2022-12-18T02:25:59.951Z,-7.14
2022-12-18T02:26:00.094Z,-7.14
2022-12-18T02:28:32.370Z,-7.46
2022-12-18T02:30:37.530Z,-7.46
2022-12-18T02:31:02.827Z,-6.60
2022-12-18T02:33:31.839Z,-7.24
2022-12-18T02:35:37.544Z,-7.24
2022-12-18T02:36:00.873Z,-6.71
2022-12-18T02:38:29.253Z,-7.47
2022-12-18T02:40:37.564Z,-7.47
2022-12-18T02:40:55.676Z,-6.71
2022-12-18T02:43:22.252Z,-7.05
2022-12-18T02:45:37.669Z,-7.05
2022-12-18T02:45:58.629Z,-6.66
2022-12-18T02:48:30.146Z,-6.64
2022-12-18T02:50:37.665Z,-6.64
2022-12-18T02:51:20.771Z,-7.16
2022-12-18T02:54:09.937Z,-7.24
2022-12-18T02:55:37.686Z,-7.24
2022-12-18T02:56:50.221Z,-6.73
2022-12-18T02:59:42.709Z,-6.58
2022-12-18T03:00:37.721Z,-6.58
2022-12-18T03:02:34.479Z,-6.55
2022-12-18T03:05:21.996Z,-7.23
2022-12-18T03:05:37.740Z,-7.23
2022-12-18T03:08:00.537Z,-6.54
2022-12-18T03:10:31.917Z,-6.87
2022-12-18T03:10:37.807Z,-6.87
2022-12-18T03:13:06.353Z,-7.11
2022-12-18T03:15:38.432Z,-6.37
2022-12-18T03:15:38.575Z,-6.37
2022-12-18T03:18:13.776Z,-6.54
2022-12-18T03:20:37.816Z,-6.54
2022-12-18T03:20:44.340Z,-6.72
2022-12-18T03:23:16.721Z,-6.96
2022-12-18T03:25:37.888Z,-6.96
2022-12-18T03:25:44.856Z,-6.40
2022-12-18T03:28:16.568Z,-6.79
2022-12-18T03:30:37.899Z,-6.79
2022-12-18T03:30:45.853Z,-6.60
2022-12-18T03:33:20.443Z,-7.33
2022-12-18T03:35:37.881Z,-7.33
2022-12-18T03:35:47.398Z,-6.65
2022-12-18T03:38:14.506Z,-6.43
2022-12-18T03:40:37.831Z,-6.43
2022-12-18T03:40:43.930Z,-6.29
2022-12-18T03:43:23.090Z,-6.35
2022-12-18T03:45:37.830Z,-6.35
2022-12-18T03:45:59.191Z,-6.80
2022-12-18T03:48:33.263Z,-6.41
2022-12-18T03:50:37.861Z,-6.41
2022-12-18T03:51:08.910Z,-6.68
2022-12-18T03:53:43.043Z,-6.51
2022-12-18T03:55:37.835Z,-6.51
2022-12-18T03:56:11.399Z,-6.73
2022-12-18T03:58:41.076Z,-6.61
2022-12-18T04:00:37.847Z,-6.61
2022-12-18T04:01:10.991Z,-6.28
2022-12-18T04:03:39.122Z,-7.56
2022-12-18T04:05:37.871Z,-7.56
2022-12-18T04:06:07.031Z,-6.82
2022-12-18T04:08:35.736Z,-6.87
2022-12-18T04:10:37.850Z,-6.87
2022-12-18T04:11:03.375Z,-6.81
2022-12-18T04:13:39.336Z,-6.51
2022-12-18T04:15:37.946Z,-6.51
2022-12-18T04:16:07.033Z,-6.39
2022-12-18T04:18:33.412Z,-6.90
2022-12-18T04:20:37.826Z,-6.90
2022-12-18T04:20:59.867Z,-6.36
2022-12-18T04:23:26.267Z,-6.83
2022-12-18T04:25:37.856Z,-6.83
2022-12-18T04:25:52.598Z,-7.18
2022-12-18T04:28:18.981Z,-6.83
2022-12-18T04:30:37.853Z,-6.83
2022-12-18T04:30:46.123Z,-6.64
2022-12-18T04:33:13.745Z,-6.39
2022-12-18T04:35:38.038Z,-6.39
2022-12-18T04:35:40.954Z,-6.35
2022-12-18T04:38:09.273Z,-6.37
2022-12-18T04:40:35.848Z,-6.67
2022-12-18T04:40:37.875Z,-6.67
2022-12-18T04:43:02.472Z,-7.19
2022-12-18T04:45:28.901Z,-7.03
2022-12-18T04:45:37.863Z,-7.03
2022-12-18T04:47:55.215Z,-6.37
2022-12-18T04:50:21.564Z,-6.65
2022-12-18T04:50:37.845Z,-6.65
2022-12-18T04:52:47.895Z,-7.80
2022-12-18T04:55:14.299Z,-6.57
2022-12-18T04:55:37.861Z,-6.57
2022-12-18T04:57:40.699Z,-6.77
2022-12-18T05:00:07.916Z,-7.02
2022-12-18T05:00:37.859Z,-7.02
2022-12-18T05:02:34.336Z,-6.53
2022-12-18T05:05:00.782Z,-6.15
2022-12-18T05:05:37.886Z,-6.15
2022-12-18T05:07:27.164Z,-6.15
2022-12-18T05:09:53.576Z,-6.16
2022-12-18T05:10:38.434Z,-6.16
2022-12-18T05:12:19.889Z,-6.14
2022-12-18T05:14:46.258Z,-7.80
2022-12-18T05:15:37.866Z,-7.80
2022-12-18T05:17:12.692Z,-6.75
2022-12-18T05:19:39.162Z,-7.25
2022-12-18T05:20:37.885Z,-7.25
2022-12-18T05:22:05.463Z,-6.30
2022-12-18T05:24:31.818Z,-6.91
2022-12-18T05:25:37.855Z,-6.91
2022-12-18T05:26:58.135Z,-6.52
2022-12-18T05:29:24.603Z,-6.39
2022-12-18T05:30:37.855Z,-6.39
2022-12-18T05:31:51.021Z,-6.54
2022-12-18T05:34:17.533Z,-6.53
2022-12-18T05:35:37.993Z,-6.53
2022-12-18T05:36:44.288Z,-6.32
2022-12-18T05:39:10.972Z,-6.28
2022-12-18T05:40:37.869Z,-6.28
2022-12-18T05:41:37.362Z,-6.65
2022-12-18T05:44:03.942Z,-6.50
2022-12-18T05:45:37.889Z,-6.50
2022-12-18T05:46:31.950Z,-6.30
2022-12-18T05:49:02.021Z,-6.31
2022-12-18T05:50:37.856Z,-6.31
2022-12-18T05:51:28.840Z,-6.28
2022-12-18T05:53:55.813Z,-7.03
2022-12-18T05:55:37.868Z,-7.03
2022-12-18T05:56:23.295Z,-6.31
2022-12-18T05:58:53.966Z,-6.25
2022-12-18T06:00:37.889Z,-6.25
2022-12-18T06:01:24.501Z,-6.11
2022-12-18T06:03:51.199Z,-6.09
2022-12-18T06:05:37.913Z,-6.09
2022-12-18T06:06:18.779Z,-6.12
2022-12-18T06:08:46.620Z,-6.18
2022-12-18T06:10:37.849Z,-6.18
2022-12-18T06:11:14.285Z,-6.08
2022-12-18T06:13:41.001Z,-6.08
2022-12-18T06:15:37.857Z,-6.08
2022-12-18T06:16:09.048Z,-6.13
2022-12-18T06:18:35.571Z,-6.54
2022-12-18T06:20:37.886Z,-6.54
2022-12-18T06:21:02.787Z,-5.99
2022-12-18T06:23:29.280Z,-6.19
2022-12-18T06:25:37.878Z,-6.19
2022-12-18T06:25:55.627Z,-6.35
2022-12-18T06:28:22.320Z,-6.05
2022-12-18T06:30:37.877Z,-6.05
2022-12-18T06:30:49.360Z,-6.60
2022-12-18T06:33:16.890Z,-6.31
2022-12-18T06:35:38.060Z,-6.31
2022-12-18T06:35:43.345Z,-6.30
2022-12-18T06:38:09.787Z,-6.63
2022-12-18T06:40:38.991Z,-6.09
2022-12-18T06:40:39.156Z,-6.09
2022-12-18T06:43:05.740Z,-6.16
2022-12-18T06:45:32.240Z,-6.27
2022-12-18T06:45:37.937Z,-6.27
2022-12-18T06:47:58.559Z,-6.06
2022-12-18T06:50:25.520Z,-6.36
2022-12-18T06:50:37.878Z,-6.36
2022-12-18T06:52:51.902Z,-6.52
2022-12-18T06:55:18.371Z,-5.94
2022-12-18T06:55:37.872Z,-5.94
2022-12-18T06:57:44.764Z,-5.97
2022-12-18T07:00:11.583Z,-6.27
2022-12-18T07:00:37.938Z,-6.27
2022-12-18T07:02:38.038Z,-7.21
2022-12-18T07:05:09.084Z,-6.10
2022-12-18T07:05:37.925Z,-6.10
2022-12-18T07:07:37.216Z,-5.97
2022-12-18T07:10:04.208Z,-6.36
2022-12-18T07:10:41.958Z,-6.36
2022-12-18T07:12:30.704Z,-6.59
2022-12-18T07:14:57.070Z,-6.04
2022-12-18T07:15:37.886Z,-6.04
2022-12-18T07:17:23.756Z,-6.24
2022-12-18T07:19:50.106Z,-5.97
2022-12-18T07:20:37.885Z,-5.97
2022-12-18T07:22:16.433Z,-6.64
2022-12-18T07:24:42.746Z,-6.43
2022-12-18T07:25:37.888Z,-6.43
2022-12-18T07:27:09.048Z,-5.99
2022-12-18T07:29:36.630Z,-6.18
2022-12-18T07:30:37.883Z,-6.18
2022-12-18T07:32:03.094Z,-6.00
2022-12-18T07:34:29.507Z,-6.03
2022-12-18T07:35:37.904Z,-6.03
2022-12-18T07:36:55.887Z,-5.99
2022-12-18T07:39:22.246Z,-5.99
2022-12-18T07:40:37.888Z,-5.99
2022-12-18T07:42:08.587Z,-5.96
2022-12-18T07:44:34.967Z,-6.16
2022-12-18T07:45:37.993Z,-6.16
2022-12-18T07:47:01.355Z,-5.81
2022-12-18T07:49:28.630Z,-6.29
2022-12-18T07:50:37.889Z,-6.29
2022-12-18T07:51:57.028Z,-5.78
2022-12-18T07:54:24.382Z,-6.30
2022-12-18T07:56:05.525Z,-6.30
2022-12-18T07:56:51.618Z,-6.15
2022-12-18T07:59:18.732Z,-6.02
2022-12-18T08:00:37.891Z,-6.02
2022-12-18T08:01:45.145Z,-5.83
2022-12-18T08:04:13.465Z,-5.50
2022-12-18T08:05:37.937Z,-5.50
2022-12-18T08:06:42.623Z,-5.62
2022-12-18T08:09:12.684Z,-7.33
2022-12-18T08:10:37.888Z,-7.33
2022-12-18T08:11:39.256Z,-5.21
2022-12-18T08:14:05.605Z,-5.19
2022-12-18T08:15:37.871Z,-5.19
2022-12-18T08:16:32.045Z,-5.63
2022-12-18T08:18:58.487Z,-5.10
2022-12-18T08:20:37.871Z,-5.10
2022-12-18T08:21:27.702Z,-5.18
2022-12-18T08:23:56.122Z,-5.70
2022-12-18T08:25:37.889Z,-5.70
2022-12-18T08:26:23.449Z,-5.31
2022-12-18T08:28:51.276Z,-5.60
2022-12-18T08:30:37.983Z,-5.60
2022-12-18T08:31:19.113Z,-4.90
2022-12-18T08:33:45.715Z,-5.25
2022-12-18T08:35:41.098Z,-5.25
2022-12-18T08:36:13.353Z,-5.14
2022-12-18T08:38:39.787Z,-5.45
2022-12-18T08:40:37.886Z,-5.45
2022-12-18T08:41:08.558Z,-4.76
2022-12-18T08:43:53.556Z,-5.02
2022-12-18T08:45:37.908Z,-5.02
2022-12-18T08:46:21.022Z,-4.61
2022-12-18T08:48:47.787Z,-5.08
2022-12-18T08:50:37.871Z,-5.08
2022-12-18T08:51:16.956Z,-4.53
2022-12-18T08:53:43.847Z,-4.32
2022-12-18T08:55:37.890Z,-4.32
2022-12-18T08:56:10.495Z,-5.82
2022-12-18T08:58:36.988Z,-4.78
2022-12-18T09:00:37.870Z,-4.78
2022-12-18T09:01:10.088Z,-4.05
2022-12-18T09:03:37.507Z,-4.12
2022-12-18T09:05:37.984Z,-4.12
2022-12-18T09:06:04.847Z,-4.65
2022-12-18T09:08:31.249Z,-4.11
2022-12-18T09:10:43.202Z,-4.11
2022-12-18T09:10:57.637Z,-4.96
2022-12-18T09:13:24.051Z,-4.56
2022-12-18T09:15:37.871Z,-4.56
2022-12-18T09:15:53.456Z,-4.11
2022-12-18T09:18:21.573Z,-3.95
2022-12-18T09:20:37.891Z,-3.95
2022-12-18T09:20:48.050Z,-3.95
2022-12-18T09:23:14.644Z,-3.70
2022-12-18T09:25:37.908Z,-3.70
2022-12-18T09:25:41.674Z,-3.62
2022-12-18T09:28:13.136Z,-4.26
2022-12-18T09:30:37.921Z,-4.26
2022-12-18T09:30:41.245Z,-4.21
2022-12-18T09:33:08.030Z,-3.51
2022-12-18T09:35:40.544Z,-3.70
2022-12-18T09:35:42.306Z,-3.70
2022-12-18T09:38:07.392Z,-3.75
2022-12-18T09:40:46.185Z,-3.16
2022-12-18T09:40:46.313Z,-3.16
2022-12-18T09:43:28.210Z,-3.49
2022-12-18T09:45:37.858Z,-3.49
2022-12-18T09:46:06.379Z,-3.02
2022-12-18T09:48:38.102Z,-2.98
2022-12-18T09:50:37.878Z,-2.98
2022-12-18T09:51:22.584Z,-2.85
2022-12-18T09:53:56.574Z,-3.35
2022-12-18T09:55:37.931Z,-3.35
2022-12-18T09:56:24.008Z,-2.73
2022-12-18T09:58:54.786Z,-3.07
2022-12-18T10:00:37.882Z,-3.07
2022-12-18T10:01:24.037Z,-3.06
2022-12-18T10:03:53.204Z,-3.13
2022-12-18T10:05:37.988Z,-3.13
2022-12-18T10:06:21.694Z,-2.77
2022-12-18T10:09:21.943Z,-2.93
2022-12-18T10:10:37.916Z,-2.93
2022-12-18T10:12:08.568Z,-2.47
2022-12-18T10:15:07.703Z,-3.42
2022-12-18T10:15:37.967Z,-3.42
2022-12-18T10:17:43.847Z,-2.38
2022-12-18T10:20:32.109Z,-2.38
2022-12-18T10:20:37.886Z,-2.38
2022-12-18T10:23:14.819Z,-2.56
2022-12-18T10:25:37.912Z,-2.56
2022-12-18T10:25:49.531Z,-2.27
2022-12-18T10:28:18.882Z,-2.30
2022-12-18T10:30:37.883Z,-2.30
2022-12-18T10:30:45.334Z,-2.80
2022-12-18T10:33:15.404Z,-2.34
2022-12-18T10:35:37.904Z,-2.34
2022-12-18T10:35:43.399Z,-2.09
2022-12-18T10:38:12.691Z,-2.06
2022-12-18T10:40:56.057Z,-1.97
2022-12-18T10:40:56.208Z,-1.97
2022-12-18T10:43:30.987Z,-2.44
2022-12-18T10:45:37.884Z,-2.44
2022-12-18T10:46:03.505Z,-2.04
2022-12-18T10:48:32.337Z,-2.30
2022-12-18T10:51:09.618Z,-2.30
2022-12-18T10:51:10.932Z,-3.13
2022-12-18T10:53:43.528Z,-2.19
2022-12-18T10:55:37.895Z,-2.19
2022-12-18T10:56:10.410Z,-2.56
2022-12-18T10:58:38.838Z,-2.21
2022-12-18T11:00:37.946Z,-2.21
2022-12-18T11:01:09.764Z,-1.84
2022-12-18T11:03:42.491Z,-2.41
2022-12-18T11:05:38.055Z,-2.41
2022-12-18T11:06:12.199Z,-1.85
2022-12-18T11:08:40.123Z,-1.78
2022-12-18T11:10:37.903Z,-1.78
2022-12-18T11:11:19.201Z,-2.12
2022-12-18T11:14:04.310Z,-2.03
2022-12-18T11:15:38.016Z,-2.03
2022-12-18T11:16:35.591Z,-2.21
2022-12-18T11:19:23.529Z,-1.93
2022-12-18T11:20:37.910Z,-1.93
2022-12-18T11:21:49.900Z,-1.58
2022-12-18T11:24:30.114Z,-1.63
2022-12-18T11:25:37.945Z,-1.63
2022-12-18T11:27:01.309Z,-1.61
2022-12-18T11:29:44.796Z,-1.92
2022-12-18T11:30:37.900Z,-1.92
2022-12-18T11:32:15.869Z,-1.52
2022-12-18T11:34:59.155Z,-1.45
2022-12-18T11:35:37.920Z,-1.45
2022-12-18T11:37:26.581Z,-1.69
2022-12-18T11:39:58.771Z,-1.53
2022-12-18T11:40:41.032Z,-1.53
2022-12-18T11:42:57.095Z,-1.49
2022-12-18T11:45:35.098Z,-1.50
2022-12-18T11:45:37.907Z,-1.50
2022-12-18T11:48:22.492Z,-1.71
2022-12-18T11:50:37.894Z,-1.71
2022-12-18T11:50:57.716Z,-1.35
2022-12-18T11:53:26.067Z,-1.36
2022-12-18T11:55:37.914Z,-1.36
2022-12-18T11:56:26.270Z,-1.48
2022-12-18T11:59:06.198Z,-1.90
2022-12-18T12:00:37.945Z,-1.90
2022-12-18T12:02:00.704Z,-1.46
2022-12-18T12:04:49.115Z,-1.38
2022-12-18T12:05:37.997Z,-1.38
2022-12-18T12:07:42.428Z,-1.57
2022-12-18T12:10:46.872Z,-1.82
2022-12-18T12:10:47.015Z,-1.82
2022-12-18T12:13:28.176Z,-1.34
2022-12-18T12:15:37.899Z,-1.34
2022-12-18T12:16:08.358Z,-1.49
2022-12-18T12:18:53.457Z,-1.31
2022-12-18T12:20:37.917Z,-1.31
2022-12-18T12:21:28.932Z,-1.35
2022-12-18T12:24:16.635Z,-1.96
2022-12-18T12:25:37.915Z,-1.96
2022-12-18T12:27:04.389Z,-1.39
2022-12-18T12:29:36.256Z,-1.50
2022-12-18T12:30:37.962Z,-1.50
2022-12-18T12:32:44.853Z,-1.38
2022-12-18T12:35:41.325Z,-1.36
2022-12-18T12:35:41.451Z,-1.36
2022-12-18T12:38:14.671Z,-1.43
2022-12-18T12:40:55.305Z,-1.43
2022-12-18T12:40:56.658Z,-1.64
2022-12-18T12:43:36.784Z,-2.20
2022-12-18T12:45:37.949Z,-2.20
2022-12-18T12:46:09.871Z,-1.53
2022-12-18T12:48:50.038Z,-1.60
2022-12-18T12:50:37.929Z,-1.60
2022-12-18T12:51:23.818Z,-1.46
2022-12-18T12:53:51.402Z,-1.87
2022-12-18T12:55:37.921Z,-1.87
2022-12-18T12:56:20.743Z,-1.59
2022-12-18T12:59:16.184Z,-1.43
2022-12-18T13:00:37.931Z,-1.43
2022-12-18T13:02:15.590Z,-1.42
2022-12-18T13:04:57.365Z,-1.45
2022-12-18T13:05:38.009Z,-1.45
2022-12-18T13:07:40.691Z,-1.78
2022-12-18T13:10:40.073Z,-1.42
2022-12-18T13:10:40.227Z,-1.42
2022-12-18T13:13:11.116Z,-1.47
2022-12-18T13:15:44.675Z,-1.45
2022-12-18T13:15:46.854Z,-1.45
2022-12-18T13:18:16.583Z,-1.82
2022-12-18T13:20:37.920Z,-1.82
2022-12-18T13:21:03.961Z,-1.58
2022-12-18T13:23:40.525Z,-2.03
2022-12-18T13:25:37.945Z,-2.03
2022-12-18T13:26:07.343Z,-1.59
2022-12-18T13:28:33.717Z,-1.57
2022-12-18T13:30:37.935Z,-1.57
2022-12-18T13:31:02.184Z,-1.58
2022-12-18T13:33:34.680Z,-1.71
2022-12-18T13:35:37.932Z,-1.71
2022-12-18T13:36:13.417Z,-1.67
2022-12-18T13:38:41.451Z,-1.68
2022-12-18T13:40:37.950Z,-1.68
2022-12-18T13:41:08.246Z,-1.71
2022-12-18T13:43:44.687Z,-1.70
2022-12-18T13:45:37.906Z,-1.70
2022-12-18T13:46:24.112Z,-1.95
2022-12-18T13:49:06.146Z,-1.76
2022-12-18T13:50:37.917Z,-1.76
2022-12-18T13:51:34.544Z,-2.05
2022-12-18T13:54:03.980Z,-1.69
2022-12-18T13:55:37.979Z,-1.69
2022-12-18T13:56:33.098Z,-1.72
2022-12-18T13:59:11.935Z,-1.72
2022-12-18T14:00:38.002Z,-1.72
2022-12-18T14:01:52.835Z,-1.70
2022-12-18T14:04:21.973Z,-1.76
2022-12-18T14:05:38.723Z,-1.76
2022-12-18T14:06:52.545Z,-1.79
2022-12-18T14:09:26.029Z,-2.85
2022-12-18T14:10:49.234Z,-2.85
2022-12-18T14:12:14.232Z,-2.28
2022-12-18T14:14:48.168Z,-2.43
2022-12-18T14:15:37.928Z,-2.43
2022-12-18T14:17:16.797Z,-1.91
2022-12-18T14:19:46.854Z,-1.93
2022-12-18T14:20:37.933Z,-1.93
2022-12-18T14:22:20.757Z,-2.14
2022-12-18T14:24:48.060Z,-2.41
2022-12-18T14:25:37.918Z,-2.41
2022-12-18T14:27:23.098Z,-1.91
2022-12-18T14:29:50.210Z,-1.92
2022-12-18T14:30:37.964Z,-1.92
2022-12-18T14:32:21.259Z,-2.04
2022-12-18T14:34:55.031Z,-2.01
2022-12-18T14:35:37.935Z,-2.01
2022-12-18T14:37:26.847Z,-2.05
2022-12-18T14:40:07.171Z,-2.07
2022-12-18T14:40:37.949Z,-2.07
2022-12-18T14:42:37.381Z,-2.16
2022-12-18T14:45:43.582Z,-2.17
2022-12-18T14:45:44.647Z,-2.17
2022-12-18T14:48:14.265Z,-2.21
2022-12-18T14:50:37.901Z,-2.21
2022-12-18T14:50:43.668Z,-2.57
2022-12-18T14:53:24.150Z,-2.25
2022-12-18T14:55:37.931Z,-2.25
2022-12-18T14:55:51.704Z,-2.37
2022-12-18T14:58:19.265Z,-2.85
2022-12-18T15:00:37.936Z,-2.85
2022-12-18T15:00:45.676Z,-2.68
2022-12-18T15:03:19.995Z,-2.65
2022-12-18T15:05:37.967Z,-2.65
2022-12-18T15:05:46.507Z,-2.41
2022-12-18T15:08:36.689Z,-2.72
2022-12-18T15:10:37.933Z,-2.72
2022-12-18T15:11:05.623Z,-2.42
2022-12-18T15:13:35.354Z,-2.90
2022-12-18T15:15:38.019Z,-2.90
2022-12-18T15:16:04.169Z,-2.41
2022-12-18T15:18:41.972Z,-2.80
2022-12-18T15:20:37.969Z,-2.80
2022-12-18T15:21:11.166Z,-2.44
2022-12-18T15:23:37.436Z,-2.44
2022-12-18T15:25:37.939Z,-2.44
2022-12-18T15:26:07.032Z,-2.47
2022-12-18T15:28:39.043Z,-2.47
2022-12-18T15:30:37.995Z,-2.47
2022-12-18T15:31:09.816Z,-2.47
2022-12-18T15:34:00.163Z,-2.53
2022-12-18T15:35:41.211Z,-2.53
2022-12-18T15:36:37.300Z,-2.47
2022-12-18T15:39:05.100Z,-2.98
2022-12-18T15:40:37.917Z,-2.98
2022-12-18T15:41:35.741Z,-3.09
2022-12-18T15:44:03.581Z,-2.86
2022-12-18T15:45:37.925Z,-2.86
2022-12-18T15:46:31.738Z,-2.73
2022-12-18T15:49:02.144Z,-2.63
2022-12-18T15:50:37.995Z,-2.63
2022-12-18T15:51:36.468Z,-2.64
2022-12-18T15:54:05.741Z,-2.84
2022-12-18T15:55:37.954Z,-2.84
2022-12-18T15:56:51.810Z,-2.63
2022-12-18T15:59:20.085Z,-2.90
2022-12-18T16:00:37.943Z,-2.90
2022-12-18T16:01:49.312Z,-2.69
2022-12-18T16:04:17.641Z,-2.95
2022-12-18T16:05:37.996Z,-2.95
2022-12-18T16:07:13.213Z,-2.77
2022-12-18T16:09:30.609Z,-2.75
2022-12-18T16:10:37.933Z,-2.75
2022-12-18T16:11:56.983Z,-2.69
2022-12-18T16:14:28.724Z,-2.84
2022-12-18T16:15:38.002Z,-2.84
2022-12-18T16:17:00.812Z,-2.85
2022-12-18T16:19:28.188Z,-2.65
2022-12-18T16:20:37.995Z,-2.65
2022-12-18T16:21:56.756Z,-2.65
2022-12-18T16:24:31.278Z,-2.68
2022-12-18T16:25:37.953Z,-2.68
2022-12-18T16:27:00.256Z,-4.99
2022-12-18T16:29:28.329Z,-2.78
2022-12-18T16:30:38.468Z,-2.78
2022-12-18T16:31:56.050Z,-2.68
2022-12-18T16:34:28.600Z,-2.61
2022-12-18T16:35:38.015Z,-2.61
2022-12-18T16:37:05.273Z,-2.63
2022-12-18T16:39:34.261Z,-2.66
2022-12-18T16:40:37.922Z,-2.66
2022-12-18T16:42:01.963Z,-3.24
2022-12-18T16:44:32.171Z,-2.74
2022-12-18T16:45:37.942Z,-2.74
2022-12-18T16:47:02.695Z,-3.11
2022-12-18T16:49:29.587Z,-2.63
2022-12-18T16:50:37.937Z,-2.63
2022-12-18T16:51:55.941Z,-2.89
2022-12-18T16:54:22.300Z,-2.67
2022-12-18T16:55:37.935Z,-2.67
2022-12-18T16:56:50.353Z,-2.93
2022-12-18T16:59:16.701Z,-2.57
2022-12-18T17:00:38.035Z,-2.57
2022-12-18T17:01:44.318Z,-2.59
2022-12-18T17:04:10.753Z,-3.06
2022-12-18T17:05:37.974Z,-3.06
2022-12-18T17:06:42.150Z,-2.84
2022-12-18T17:09:12.508Z,-2.91
2022-12-18T17:10:37.943Z,-2.91
2022-12-18T17:11:38.867Z,-3.19
2022-12-18T17:14:15.535Z,-2.55
2022-12-18T17:15:38.109Z,-2.55
2022-12-18T17:16:42.398Z,-2.61
2022-12-18T17:19:12.211Z,-2.65
2022-12-18T17:20:37.953Z,-2.65
2022-12-18T17:21:41.742Z,-3.17
2022-12-18T17:24:08.447Z,-2.78
2022-12-18T17:25:37.935Z,-2.78
2022-12-18T17:26:34.823Z,-2.57
2022-12-18T17:29:01.263Z,-2.56
2022-12-18T17:30:37.941Z,-2.56
2022-12-18T17:31:29.405Z,-3.59
2022-12-18T17:33:56.280Z,-2.56
2022-12-18T17:35:37.935Z,-2.56
2022-12-18T17:36:23.378Z,-2.62
2022-12-18T17:38:52.532Z,-3.07
2022-12-18T17:40:41.792Z,-3.07
2022-12-18T17:41:19.383Z,-2.63
2022-12-18T17:43:51.699Z,-3.00
2022-12-18T17:45:37.923Z,-3.00
2022-12-18T17:46:18.771Z,-2.55
2022-12-18T17:48:45.537Z,-2.57
2022-12-18T17:50:37.958Z,-2.57
2022-12-18T17:51:12.118Z,-2.58
2022-12-18T17:53:39.605Z,-3.12
2022-12-18T17:55:37.962Z,-3.12
2022-12-18T17:56:10.050Z,-2.54
2022-12-18T17:58:37.365Z,-2.89
2022-12-18T18:00:37.941Z,-2.89
2022-12-18T18:01:06.624Z,-2.54
2022-12-18T18:03:34.282Z,-2.93
2022-12-18T18:05:37.947Z,-2.93
2022-12-18T18:06:02.038Z,-3.03
2022-12-18T18:08:28.863Z,-2.63
2022-12-18T18:10:37.957Z,-2.63
2022-12-18T18:11:15.907Z,-2.55
2022-12-18T18:14:00.895Z,-2.86
2022-12-18T18:15:37.937Z,-2.86
2022-12-18T18:16:39.898Z,-2.48
2022-12-18T18:19:10.837Z,-3.13
2022-12-18T18:20:37.938Z,-3.13
2022-12-18T18:21:42.719Z,-2.51
2022-12-18T18:24:12.679Z,-2.46
2022-12-18T18:25:37.959Z,-2.46
2022-12-18T18:26:41.464Z,-2.99
2022-12-18T18:29:22.453Z,-2.66
2022-12-18T18:30:37.921Z,-2.66
2022-12-18T18:31:49.532Z,-3.26
2022-12-18T18:34:18.787Z,-2.56
2022-12-18T18:35:53.909Z,-2.56
2022-12-18T18:36:46.194Z,-3.08
2022-12-18T18:39:13.520Z,-2.96
2022-12-18T18:40:37.964Z,-2.96
2022-12-18T18:41:39.952Z,-3.39
2022-12-18T18:44:06.910Z,-2.65
2022-12-18T18:45:37.996Z,-2.65
2022-12-18T18:46:33.626Z,-2.64
2022-12-18T18:48:59.947Z,-2.57
2022-12-18T18:50:38.131Z,-2.57
2022-12-18T18:51:31.443Z,-2.83
2022-12-18T18:54:01.035Z,-2.55
2022-12-18T18:55:37.929Z,-2.55
2022-12-18T18:56:56.296Z,-2.55
2022-12-18T18:59:16.502Z,-2.88
2022-12-18T19:00:38.022Z,-2.88
2022-12-18T19:01:43.210Z,-2.58
2022-12-18T19:04:10.214Z,-2.90
2022-12-18T19:05:39.831Z,-2.90
2022-12-18T19:06:36.608Z,-3.10
2022-12-18T19:09:05.139Z,-2.77
2022-12-18T19:10:37.965Z,-2.77
2022-12-18T19:11:50.877Z,-2.59
2022-12-18T19:14:17.583Z,-2.58
2022-12-18T19:15:37.975Z,-2.58
2022-12-18T19:16:45.461Z,-2.78
2022-12-18T19:19:12.865Z,-2.50
2022-12-18T19:20:37.964Z,-2.50
2022-12-18T19:21:39.222Z,-3.16
2022-12-18T19:24:06.250Z,-2.56
2022-12-18T19:25:40.492Z,-2.56
2022-12-18T19:26:32.635Z,-2.85
2022-12-18T19:29:07.605Z,-2.56
2022-12-18T19:30:37.979Z,-2.56
2022-12-18T19:31:36.357Z,-2.50
2022-12-18T19:34:07.770Z,-2.68
2022-12-18T19:35:37.950Z,-2.68
2022-12-18T19:36:36.261Z,-2.54
2022-12-18T19:39:09.123Z,-2.60
2022-12-18T19:40:37.978Z,-2.60
2022-12-18T19:41:35.495Z,-2.90
2022-12-18T19:44:07.492Z,-2.84
2022-12-18T19:45:38.017Z,-2.84
2022-12-18T19:46:35.513Z,-2.54
2022-12-18T19:49:02.397Z,-3.69
2022-12-18T19:50:37.990Z,-3.69
2022-12-18T19:51:30.668Z,-3.12
2022-12-18T19:54:01.370Z,-3.06
2022-12-18T19:55:37.965Z,-3.06
2022-12-18T19:56:30.965Z,-3.17
2022-12-18T19:58:57.665Z,-3.27
2022-12-18T20:00:37.960Z,-3.27
2022-12-18T20:01:25.282Z,-2.49
2022-12-18T20:03:52.981Z,-2.61
2022-12-18T20:05:37.950Z,-2.61
2022-12-18T20:06:28.527Z,-2.83
2022-12-18T20:09:00.289Z,-2.38
2022-12-18T20:10:37.949Z,-2.38
2022-12-18T20:11:27.515Z,-2.45
2022-12-18T20:13:53.971Z,-2.93
2022-12-18T20:15:43.416Z,-2.93
2022-12-18T20:16:20.535Z,-3.78
2022-12-18T20:18:47.056Z,-2.74
2022-12-18T20:20:37.968Z,-2.74
2022-12-18T20:21:14.267Z,-2.39
2022-12-18T20:23:41.261Z,-2.73
2022-12-18T20:25:37.955Z,-2.73
2022-12-18T20:26:08.672Z,-2.55
2022-12-18T20:28:35.362Z,-2.94
2022-12-18T20:30:37.981Z,-2.94
2022-12-18T20:31:03.744Z,-3.62
2022-12-18T20:33:30.771Z,-2.58
2022-12-18T20:35:37.973Z,-2.58
2022-12-18T20:36:07.366Z,-2.46
2022-12-18T20:38:35.248Z,-2.93
2022-12-18T20:40:37.980Z,-2.93
2022-12-18T20:41:06.694Z,-2.58
2022-12-18T20:43:33.109Z,-2.91
2022-12-18T20:45:37.977Z,-2.91
2022-12-18T20:46:04.004Z,-2.43
2022-12-18T20:48:31.233Z,-2.76
2022-12-18T20:50:37.968Z,-2.76
2022-12-18T20:51:03.673Z,-2.49
2022-12-18T20:53:31.345Z,-2.92
2022-12-18T20:55:37.971Z,-2.92
2022-12-18T20:55:57.765Z,-2.43
2022-12-18T20:58:24.462Z,-2.33
2022-12-18T21:00:37.969Z,-2.33
2022-12-18T21:01:02.070Z,-2.57
2022-12-18T21:03:28.620Z,-2.92
2022-12-18T21:05:37.976Z,-2.92
2022-12-18T21:05:54.992Z,-2.46
2022-12-18T21:08:21.273Z,-2.50
2022-12-18T21:10:37.992Z,-2.50
2022-12-18T21:10:47.641Z,-2.24
2022-12-18T21:13:14.090Z,-2.16
2022-12-18T21:15:37.984Z,-2.16
2022-12-18T21:15:40.772Z,-2.45
2022-12-18T21:18:07.103Z,-2.22
2022-12-18T21:20:33.477Z,-3.44
2022-12-18T21:20:37.970Z,-3.44
2022-12-18T21:23:03.448Z,-2.13
2022-12-18T21:25:37.986Z,-2.13
2022-12-18T21:25:42.808Z,-2.08
2022-12-18T21:28:09.138Z,-2.75
2022-12-18T21:30:35.605Z,-2.11
2022-12-18T21:30:38.072Z,-2.11
2022-12-18T21:33:01.969Z,-2.31
2022-12-18T21:35:28.255Z,-2.34
2022-12-18T21:35:37.971Z,-2.34